Time;durP1;ratioP1;P1;durP2;ratioP2;P2;SDS_P1;SDS_P2;PMS_P1;PMS_P2;Temp;Humidity;BMP_temperature;BMP_pressure;BME280_temperature;BME280_humidity;BME280_pressure;Samples;Min_cycle;Max_cycle;Signal;HPM_P1;HPM_P2
2020/12/21 00:01:51;;;;;;;;;;;;;;;;;;5047824;28;19931;-67
2020/12/21 00:04:17;;;;;;;;;;;;;;;;;;5041680;28;20401;-67
2020/12/21 00:06:44;;;;;;;;;;;;;;;;;;5048960;28;19972;-67
2020/12/21 00:09:10;;;;;;;;;;;;;;;;;;5044528;28;19931;-68
2020/12/21 00:11:37;;;;;;;;;;;;;;;;;;5037488;28;20020;-68
2020/12/21 00:14:04;;;;;;;;;;;;;;;;;;5036873;28;20291;-70
2020/12/21 00:16:30;;;;;;;;;;;;;;;;;;5035037;28;19965;-68
2020/12/21 00:18:57;;;;;;;;;;;;;;;;;;5050093;28;20445;-68
2020/12/21 00:21:23;;;;;;;;;;;;;;;;;;5040771;28;20043;-68
2020/12/21 00:23:50;;;;;;;;;;;;;;;;;;5037612;28;19975;-68
2020/12/21 00:26:16;;;;;;;;;;;;;;;;;;5038177;28;20345;-68
2020/12/21 00:28:43;;;;;;;;;;;;;;;;;;5054730;28;19924;-68
2020/12/21 00:31:09;;;;;;;;;;;;;;;;;;5054369;28;20337;-68
2020/12/21 00:33:36;;;;;;;;;;;;;;;;;;5054785;28;19967;-67
2020/12/21 00:36:02;;;;;;;;;;;;;;;;;;5035062;28;20011;-67
2020/12/21 00:38:28;;;;;;;;;;;;;;;;;;5045245;28;20309;-67
2020/12/21 00:40:55;;;;;;;;;;;;;;;;;;5044979;28;19929;-72
2020/12/21 00:43:21;;;;;;;;;;;;;;;;;;5043256;28;20382;-69
2020/12/21 00:45:48;;;;;;;;;;;;;;;;;;5044627;28;19978;-67
2020/12/21 00:48:14;;;;;;;;;;;;;;;;;;5050537;28;20342;-68
2020/12/21 00:50:41;;;;;;;;;;;;;;;;;;5054178;28;20027;-67
2020/12/21 00:53:07;;;;;;;;;;;;;;;;;;5037196;28;19974;-67
2020/12/21 00:55:34;;;;;;;;;;;;;;;;;;5049805;28;19925;-69
2020/12/21 00:58:00;;;;;;;;;;;;;;;;;;5050744;28;19940;-70
2020/12/21 01:00:27;;;;;;;;;;;;;;;;;;5047866;28;20395;-66
2020/12/21 01:02:53;;;;;;;;;;;;;;;;;;5037818;28;20418;-66
2020/12/21 01:05:20;;;;;;;;;;;;;;;;;;5053238;28;20081;-66
2020/12/21 01:07:46;;;;;;;;;;;;;;;;;;5048366;28;20305;-67
2020/12/21 01:10:13;;;;;;;;;;;;;;;;;;5052949;28;19928;-66
2020/12/21 01:12:39;;;;;;;;;;;;;;;;;;5046429;28;20370;-65
2020/12/21 01:15:05;;;;;;;;;;;;;;;;;;5045343;28;20394;-67
2020/12/21 01:17:32;;;;;;;;;;;;;;;;;;5043007;28;20394;-67
2020/12/21 01:19:58;;;;;;;;;;;;;;;;;;5045148;28;19925;-67
2020/12/21 01:22:25;;;;;;;;;;;;;;;;;;5053820;28;19931;-67
2020/12/21 01:24:51;;;;;;;;;;;;;;;;;;5053337;28;19925;-71
2020/12/21 01:27:18;;;;;;;;;;;;;;;;;;5053393;28;19924;-67
2020/12/21 01:29:44;;;;;;;;;;;;;;;;;;5053761;28;20023;-67
2020/12/21 01:32:11;;;;;;;;;;;;;;;;;;5046123;28;20013;-67
2020/12/21 01:34:37;;;;;;;;;;;;;;;;;;5052125;28;19997;-69
2020/12/21 01:37:04;;;;;;;;;;;;;;;;;;5042121;28;19978;-67
2020/12/21 01:39:30;;;;;;;;;;;;;;;;;;5033935;28;20448;-66
2020/12/21 01:41:57;;;;;;;;;;;;;;;;;;5034613;28;20061;-66
2020/12/21 01:44:23;;;;;;;;;;;;;;;;;;5050562;28;19929;-66
2020/12/21 01:46:50;;;;;;;;;;;;;;;;;;5035376;28;19968;-66
2020/12/21 01:49:16;;;;;;;;;;;;;;;;;;5046636;28;19931;-66
2020/12/21 01:51:43;;;;;;;;;;;;;;;;;;5054165;28;19931;-66
2020/12/21 01:54:09;;;;;;;;;;;;;;;;;;5044979;28;19929;-66
2020/12/21 01:56:36;;;;;;;;;;;;;;;;;;5051570;28;19932;-67
2020/12/21 01:59:02;;;;;;;;;;;;;;;;;;5047140;28;19928;-67
2020/12/21 02:01:29;;;;;;;;;;;;;;;;;;5033630;28;19939;-66
2020/12/21 02:03:55;;;;;;;;;;;;;;;;;;5050023;28;19982;-67
2020/12/21 02:06:22;;;;;;;;;;;;;;;;;;5052308;28;19931;-67
2020/12/21 02:08:48;;;;;;;;;;;;;;;;;;5035933;28;19931;-67
2020/12/21 02:11:14;;;;;;;;;;;;;;;;;;5037499;28;19931;-66
2020/12/21 02:13:41;;;;;;;;;;;;;;;;;;5052636;28;19931;-67
2020/12/21 02:16:11;;;;;;;;;;;;;;;;;;5035891;28;19924;-67
2020/12/21 02:18:37;;;;;;;;;;;;;;;;;;5039117;28;20310;-67
2020/12/21 02:21:04;;;;;;;;;;;;;;;;;;5033387;28;19970;-67
2020/12/21 02:23:30;;;;;;;;;;;;;;;;;;5033329;28;19925;-67
2020/12/21 02:25:56;;;;;;;;;;;;;;;;;;5042633;28;19928;-69
2020/12/21 02:28:23;;;;;;;;;;;;;;;;;;5051976;28;19931;-67
2020/12/21 02:30:49;;;;;;;;;;;;;;;;;;5059180;28;19924;-67
2020/12/21 02:33:16;;;;;;;;;;;;;;;;;;5069135;28;19925;-67
2020/12/21 02:35:42;;;;;;;;;;;;;;;;;;5039564;28;19925;-67
2020/12/21 02:38:09;;;;;;;;;;;;;;;;;;5035474;28;19925;-67
2020/12/21 02:40:35;;;;;;;;;;;;;;;;;;5036023;28;20024;-67
2020/12/21 02:43:02;;;;;;;;;;;;;;;;;;5033425;28;19925;-66
2020/12/21 02:45:28;;;;;;;;;;;;;;;;;;5034863;28;19932;-66
2020/12/21 02:47:55;;;;;;;;;;;;;;;;;;5041218;28;19937;-66
2020/12/21 02:50:21;;;;;;;;;;;;;;;;;;5041831;28;19925;-66
2020/12/21 02:52:48;;;;;;;;;;;;;;;;;;5052913;28;19925;-68
2020/12/21 02:55:14;;;;;;;;;;;;;;;;;;5047299;28;19951;-66
2020/12/21 02:57:41;;;;;;;;;;;;;;;;;;5049669;28;20023;-67
2020/12/21 03:00:07;;;;;;;;;;;;;;;;;;5052047;28;20019;-66
2020/12/21 03:02:34;;;;;;;;;;;;;;;;;;5034398;28;19933;-66
2020/12/21 03:05:00;;;;;;;;;;;;;;;;;;5035085;28;19970;-65
2020/12/21 03:07:27;;;;;;;;;;;;;;;;;;5032755;28;19929;-66
2020/12/21 03:09:53;;;;;;;;;;;;;;;;;;5033386;28;19925;-66
2020/12/21 03:12:20;;;;;;;;;;;;;;;;;;5052163;28;19925;-66
2020/12/21 03:14:46;;;;;;;;;;;;;;;;;;5042406;28;20032;-66
2020/12/21 03:17:13;;;;;;;;;;;;;;;;;;5055971;28;19937;-70
2020/12/21 03:19:39;;;;;;;;;;;;;;;;;;5053526;28;19982;-66
2020/12/21 03:22:06;;;;;;;;;;;;;;;;;;5051211;28;20299;-65
2020/12/21 03:24:32;;;;;;;;;;;;;;;;;;5054411;28;19924;-66
2020/12/21 03:26:59;;;;;;;;;;;;;;;;;;5049000;28;20299;-66
2020/12/21 03:29:25;;;;;;;;;;;;;;;;;;5045591;28;19931;-67
2020/12/21 03:31:52;;;;;;;;;;;;;;;;;;5043381;28;20398;-66
2020/12/21 03:34:18;;;;;;;;;;;;;;;;;;5052520;28;19925;-66
2020/12/21 03:36:45;;;;;;;;;;;;;;;;;;5038246;28;19925;-68
2020/12/21 03:39:11;;;;;;;;;;;;;;;;;;5037901;28;19925;-68
2020/12/21 03:41:37;;;;;;;;;;;;;;;;;;5045359;28;19928;-68
2020/12/21 03:44:04;;;;;;;;;;;;;;;;;;5059646;28;19946;-66
2020/12/21 03:46:30;;;;;;;;;;;;;;;;;;5044040;28;19931;-68
2020/12/21 03:48:57;;;;;;;;;;;;;;;;;;5061969;28;20019;-65
2020/12/21 03:51:23;;;;;;;;;;;;;;;;;;5071238;28;19978;-68
2020/12/21 03:53:50;;;;;;;;;;;;;;;;;;5059237;28;19925;-68
2020/12/21 03:56:16;;;;;;;;;;;;;;;;;;5057281;28;19935;-68
2020/12/21 03:58:43;;;;;;;;;;;;;;;;;;5058959;28;19929;-67
2020/12/21 04:01:09;;;;;;;;;;;;;;;;;;5054108;28;20440;-68
2020/12/21 04:03:36;;;;;;;;;;;;;;;;;;5057794;28;20019;-68
2020/12/21 04:06:02;;;;;;;;;;;;;;;;;;5048478;28;20402;-68
2020/12/21 04:08:29;;;;;;;;;;;;;;;;;;5068706;28;20010;-68
2020/12/21 04:10:55;;;;;;;;;;;;;;;;;;5058048;28;19932;-68
2020/12/21 04:13:22;;;;;;;;;;;;;;;;;;5044104;28;19932;-67
2020/12/21 04:15:48;;;;;;;;;;;;;;;;;;5036262;28;19925;-68
2020/12/21 04:18:15;;;;;;;;;;;;;;;;;;5038046;28;20292;-67
2020/12/21 04:20:41;;;;;;;;;;;;;;;;;;5054509;28;20019;-67
2020/12/21 04:23:08;;;;;;;;;;;;;;;;;;5051691;28;19925;-66
2020/12/21 04:25:34;;;;;;;;;;;;;;;;;;5054187;28;20387;-67
2020/12/21 04:28:01;;;;;;;;;;;;;;;;;;5037213;28;19925;-66
2020/12/21 04:30:27;;;;;;;;;;;;;;;;;;5035410;28;20468;-66
2020/12/21 04:32:53;;;;;;;;;;;;;;;;;;5035643;28;19925;-68
2020/12/21 04:35:20;;;;;;;;;;;;;;;;;;5035860;28;19929;-67
2020/12/21 04:37:47;;;;;;;;;;;;;;;;;;5054678;28;20499;-67
2020/12/21 04:40:13;;;;;;;;;;;;;;;;;;5044156;28;20026;-67
2020/12/21 04:42:40;;;;;;;;;;;;;;;;;;5037394;28;19932;-66
2020/12/21 04:45:06;;;;;;;;;;;;;;;;;;5045050;28;19931;-67
2020/12/21 04:47:33;;;;;;;;;;;;;;;;;;5039603;28;19931;-66
2020/12/21 04:49:59;;;;;;;;;;;;;;;;;;5052321;28;20290;-71
2020/12/21 04:52:25;;;;;;;;;;;;;;;;;;5049582;28;19926;-66
2020/12/21 04:57:28;;;;;;;;;;;;;;;;;;5072664;28;19974;-67
2020/12/21 04:59:55;;;;;;;;;;;;;;;;;;5074266;28;19928;-65
2020/12/21 05:02:21;;;;;;;;;;;;;;;;;;5073984;28;19978;-63
2020/12/21 05:04:47;;;;;;;;;;;;;;;;;;5074168;28;19970;-63
2020/12/21 05:07:14;;;;;;;;;;;;;;;;;;5055412;28;20216;-66
2020/12/21 05:09:40;;;;;;;;;;;;;;;;;;5054381;28;20268;-66
2020/12/21 05:12:07;;;;;;;;;;;;;;;;;;5056396;28;19925;-66
2020/12/21 05:14:34;;;;;;;;;;;;;;;;;;5056904;28;20397;-66
2020/12/21 05:17:00;;;;;;;;;;;;;;;;;;5068589;28;20072;-65
2020/12/21 05:19:27;;;;;;;;;;;;;;;;;;5071526;28;20000;-66
2020/12/21 05:21:53;;;;;;;;;;;;;;;;;;5053879;28;19929;-66
2020/12/21 05:24:20;;;;;;;;;;;;;;;;;;5060511;28;19946;-65
2020/12/21 05:26:46;;;;;;;;;;;;;;;;;;5072334;28;20309;-66
2020/12/21 05:29:13;;;;;;;;;;;;;;;;;;5070279;28;19929;-66
2020/12/21 05:31:39;;;;;;;;;;;;;;;;;;5073028;28;19930;-65
2020/12/21 05:34:05;;;;;;;;;;;;;;;;;;5071697;28;19924;-65
2020/12/21 05:36:32;;;;;;;;;;;;;;;;;;5068278;28;19959;-64
2020/12/21 05:38:58;;;;;;;;;;;;;;;;;;5056035;28;19938;-65
2020/12/21 05:41:25;;;;;;;;;;;;;;;;;;5055328;28;19924;-66
2020/12/21 05:43:52;;;;;;;;;;;;;;;;;;5068922;28;19925;-67
2020/12/21 05:46:18;;;;;;;;;;;;;;;;;;5069407;28;19924;-66
2020/12/21 05:48:45;;;;;;;;;;;;;;;;;;5061072;28;19931;-66
2020/12/21 05:51:11;;;;;;;;;;;;;;;;;;5069121;28;20019;-67
2020/12/21 05:53:37;;;;;;;;;;;;;;;;;;5066640;28;19925;-66
2020/12/21 05:56:04;;;;;;;;;;;;;;;;;;5058059;28;19925;-65
2020/12/21 05:58:31;;;;;;;;;;;;;;;;;;5052951;28;19994;-65
2020/12/21 06:00:58;;;;;;;;;;;;;;;;;;5064397;28;19924;-67
2020/12/21 06:03:24;;;;;;;;;;;;;;;;;;5061371;28;19925;-67
2020/12/21 06:05:51;;;;;;;;;;;;;;;;;;5060977;28;19932;-66
2020/12/21 06:08:17;;;;;;;;;;;;;;;;;;5066605;28;19998;-65
2020/12/21 06:10:44;;;;;;;;;;;;;;;;;;5065209;28;20035;-66
2020/12/21 06:13:10;;;;;;;;;;;;;;;;;;5067391;28;19925;-66
2020/12/21 06:15:37;;;;;;;;;;;;;;;;;;5067869;28;19928;-67
2020/12/21 06:18:03;;;;;;;;;;;;;;;;;;5072728;28;20015;-66
2020/12/21 06:20:30;;;;;;;;;;;;;;;;;;5068526;28;19967;-66
2020/12/21 06:22:56;;;;;;;;;;;;;;;;;;5071762;28;20174;-67
2020/12/21 06:25:23;;;;;;;;;;;;;;;;;;5057416;28;19933;-67
2020/12/21 06:27:50;;;;;;;;;;;;;;;;;;5058832;28;19924;-66
2020/12/21 06:30:16;;;;;;;;;;;;;;;;;;5064325;28;20113;-66
2020/12/21 06:32:43;;;;;;;;;;;;;;;;;;5052011;28;20342;-67
2020/12/21 06:35:10;;;;;;;;;;;;;;;;;;5071000;28;20302;-67
2020/12/21 06:37:36;;;;;;;;;;;;;;;;;;5063929;28;19975;-67
2020/12/21 06:40:02;;;;;;;;;;;;;;;;;;5062635;28;19928;-67
2020/12/21 06:42:29;;;;;;;;;;;;;;;;;;5068844;28;19924;-68
2020/12/21 06:44:55;;;;;;;;;;;;;;;;;;5070837;28;19928;-69
2020/12/21 06:47:22;;;;;;;;;;;;;;;;;;5060855;28;20393;-69
2020/12/21 06:49:49;;;;;;;;;;;;;;;;;;5054724;28;19933;-69
2020/12/21 06:52:15;;;;;;;;;;;;;;;;;;5054463;28;19924;-69
2020/12/21 06:54:41;;;;;;;;;;;;;;;;;;5071570;28;19928;-67
2020/12/21 06:57:08;;;;;;;;;;;;;;;;;;5060271;28;19925;-67
2020/12/21 06:59:34;;;;;;;;;;;;;;;;;;5065165;28;19948;-67
2020/12/21 07:02:01;;;;;;;;;;;;;;;;;;5068108;28;19931;-67
2020/12/21 07:04:28;;;;;;;;;;;;;;;;;;5057336;28;19924;-67
2020/12/21 07:06:55;;;;;;;;;;;;;;;;;;5055062;28;19931;-67
2020/12/21 07:09:21;;;;;;;;;;;;;;;;;;5051823;28;20305;-67
2020/12/21 07:11:47;;;;;;;;;;;;;;;;;;5067044;28;19928;-67
2020/12/21 07:14:14;;;;;;;;;;;;;;;;;;5067542;28;19950;-67
2020/12/21 07:16:40;;;;;;;;;;;;;;;;;;5067718;28;19924;-68
2020/12/21 07:19:07;;;;;;;;;;;;;;;;;;5070277;28;19924;-67
2020/12/21 07:21:33;;;;;;;;;;;;;;;;;;5068887;28;20298;-67
2020/12/21 07:24:00;;;;;;;;;;;;;;;;;;5059576;28;19932;-67
2020/12/21 07:26:27;;;;;;;;;;;;;;;;;;5055718;28;19947;-67
2020/12/21 07:28:53;;;;;;;;;;;;;;;;;;5064354;28;19933;-67
2020/12/21 07:31:20;;;;;;;;;;;;;;;;;;5066275;28;19971;-67
2020/12/21 07:33:46;;;;;;;;;;;;;;;;;;5069331;28;19928;-66
2020/12/21 07:36:13;;;;;;;;;;;;;;;;;;5055379;28;20356;-66
2020/12/21 07:38:39;;;;;;;;;;;;;;;;;;5050331;28;19925;-68
2020/12/21 07:41:06;;;;;;;;;;;;;;;;;;5053367;28;20026;-68
2020/12/21 07:43:32;;;;;;;;;;;;;;;;;;5062565;28;19972;-68
2020/12/21 07:45:59;;;;;;;;;;;;;;;;;;5055105;28;19925;-68
2020/12/21 07:48:25;;;;;;;;;;;;;;;;;;5063627;28;19928;-67
2020/12/21 07:50:52;;;;;;;;;;;;;;;;;;5051966;28;20263;-68
2020/12/21 07:53:19;;;;;;;;;;;;;;;;;;5063161;28;19925;-68
2020/12/21 07:55:45;;;;;;;;;;;;;;;;;;5061883;28;19948;-68
2020/12/21 07:58:12;;;;;;;;;;;;;;;;;;5066871;28;19967;-68
2020/12/21 08:00:38;;;;;;;;;;;;;;;;;;5061923;28;19925;-68
2020/12/21 08:03:05;;;;;;;;;;;;;;;;;;5065199;28;20433;-66
2020/12/21 08:05:31;;;;;;;;;;;;;;;;;;5068053;28;19924;-67
2020/12/21 08:07:58;;;;;;;;;;;;;;;;;;5061659;28;19931;-69
2020/12/21 08:10:24;;;;;;;;;;;;;;;;;;5066664;28;19939;-67
2020/12/21 08:12:51;;;;;;;;;;;;;;;;;;5054387;28;19978;-69
2020/12/21 08:15:17;;;;;;;;;;;;;;;;;;5072373;28;20024;-68
2020/12/21 08:17:44;;;;;;;;;;;;;;;;;;5069522;28;20401;-71
2020/12/21 08:20:10;;;;;;;;;;;;;;;;;;5061875;28;19978;-70
2020/12/21 08:22:37;;;;;;;;;;;;;;;;;;5063202;28;19925;-66
2020/12/21 08:25:06;;;;;;;;;;;;;;;;;;5069917;28;19929;-68
2020/12/21 08:27:32;;;;;;;;;;;;;;;;;;5063136;28;19931;-69
2020/12/21 08:29:59;;;;;;;;;;;;;;;;;;5067437;28;19983;-69
2020/12/21 08:32:25;;;;;;;;;;;;;;;;;;5072982;28;19929;-70
2020/12/21 08:34:52;;;;;;;;;;;;;;;;;;5065543;28;19924;-69
2020/12/21 08:37:18;;;;;;;;;;;;;;;;;;5065056;28;20320;-69
2020/12/21 08:39:45;;;;;;;;;;;;;;;;;;5072786;28;19925;-70
2020/12/21 08:42:11;;;;;;;;;;;;;;;;;;5067464;28;20382;-69
2020/12/21 08:44:38;;;;;;;;;;;;;;;;;;5065471;28;20034;-69
2020/12/21 08:47:04;;;;;;;;;;;;;;;;;;5056979;28;19933;-68
2020/12/21 08:49:31;;;;;;;;;;;;;;;;;;5061002;28;20216;-69
2020/12/21 08:51:57;;;;;;;;;;;;;;;;;;5060440;28;20058;-70
2020/12/21 08:54:23;;;;;;;;;;;;;;;;;;5067375;28;19931;-69
2020/12/21 08:56:51;;;;;;;;;;;;;;;;;;5072682;28;19924;-66
2020/12/21 08:59:18;;;;;;;;;;;;;;;;;;5072687;28;19924;-69
2020/12/21 09:01:44;;;;;;;;;;;;;;;;;;5057113;28;19924;-67
2020/12/21 09:04:10;;;;;;;;;;;;;;;;;;5066457;28;19924;-67
2020/12/21 09:06:37;;;;;;;;;;;;;;;;;;5053114;28;19971;-66
2020/12/21 09:09:03;;;;;;;;;;;;;;;;;;5059159;28;19995;-68
2020/12/21 09:11:30;;;;;;;;;;;;;;;;;;5064512;28;19982;-66
2020/12/21 09:13:56;;;;;;;;;;;;;;;;;;5061315;28;20011;-67
2020/12/21 09:16:23;;;;;;;;;;;;;;;;;;5068863;28;19935;-68
2020/12/21 09:18:49;;;;;;;;;;;;;;;;;;5064309;28;20382;-66
2020/12/21 09:21:16;;;;;;;;;;;;;;;;;;5061255;28;20015;-68
2020/12/21 09:23:42;;;;;;;;;;;;;;;;;;5064575;28;19924;-66
2020/12/21 09:26:09;;;;;;;;;;;;;;;;;;5063500;28;19924;-68
2020/12/21 09:28:35;;;;;;;;;;;;;;;;;;5064651;28;20459;-67
2020/12/21 09:31:02;;;;;;;;;;;;;;;;;;5056209;28;20474;-68
2020/12/21 09:33:28;;;;;;;;;;;;;;;;;;5071812;28;19947;-69
2020/12/21 09:35:54;;;;;;;;;;;;;;;;;;5054668;28;19951;-68
2020/12/21 09:38:21;;;;;;;;;;;;;;;;;;5052609;28;20294;-68
2020/12/21 09:40:47;;;;;;;;;;;;;;;;;;5061537;28;19925;-67
2020/12/21 09:43:14;;;;;;;;;;;;;;;;;;5064511;28;19925;-68
2020/12/21 09:45:40;;;;;;;;;;;;;;;;;;5068542;28;20399;-67
2020/12/21 09:48:07;;;;;;;;;;;;;;;;;;5064842;28;19924;-67
2020/12/21 09:50:33;;;;;;;;;;;;;;;;;;5063260;28;19928;-69
2020/12/21 09:52:59;;;;;;;;;;;;;;;;;;5062185;28;19924;-68
2020/12/21 09:55:26;;;;;;;;;;;;;;;;;;5068353;28;19925;-70
2020/12/21 09:57:52;;;;;;;;;;;;;;;;;;5066926;28;19975;-67
2020/12/21 10:00:19;;;;;;;;;;;;;;;;;;5061811;28;20006;-68
2020/12/21 10:02:45;;;;;;;;;;;;;;;;;;5068852;28;19924;-68
2020/12/21 10:05:12;;;;;;;;;;;;;;;;;;5067658;28;19924;-68
2020/12/21 10:07:38;;;;;;;;;;;;;;;;;;5061611;28;19932;-67
2020/12/21 10:10:05;;;;;;;;;;;;;;;;;;5068331;28;19924;-70
2020/12/21 10:12:31;;;;;;;;;;;;;;;;;;5052927;28;19938;-68
2020/12/21 10:14:57;;;;;;;;;;;;;;;;;;5060079;28;19933;-67
2020/12/21 10:17:24;;;;;;;;;;;;;;;;;;5060945;28;20031;-69
2020/12/21 10:19:50;;;;;;;;;;;;;;;;;;5064081;28;19939;-66
2020/12/21 10:22:17;;;;;;;;;;;;;;;;;;5062222;28;19960;-67
2020/12/21 10:24:43;;;;;;;;;;;;;;;;;;5055983;28;20035;-67
2020/12/21 10:27:10;;;;;;;;;;;;;;;;;;5055265;28;19956;-71
2020/12/21 10:29:36;;;;;;;;;;;;;;;;;;5062201;28;19924;-67
2020/12/21 10:32:03;;;;;;;;;;;;;;;;;;5055571;28;19975;-69
2020/12/21 10:34:30;;;;;;;;;;;;;;;;;;5052754;28;19924;-68
2020/12/21 10:36:56;;;;;;;;;;;;;;;;;;5060530;28;19971;-69
2020/12/21 10:39:23;;;;;;;;;;;;;;;;;;5058355;28;20462;-67
2020/12/21 10:41:49;;;;;;;;;;;;;;;;;;5066598;28;19946;-66
2020/12/21 10:44:16;;;;;;;;;;;;;;;;;;5062036;28;20005;-67
2020/12/21 10:46:42;;;;;;;;;;;;;;;;;;5056484;28;19929;-67
2020/12/21 10:49:08;;;;;;;;;;;;;;;;;;5058271;28;19925;-67
2020/12/21 10:51:36;;;;;;;;;;;;;;;;;;5062431;28;20538;-66
2020/12/21 10:54:03;;;;;;;;;;;;;;;;;;5071160;28;20311;-67
2020/12/21 10:56:29;;;;;;;;;;;;;;;;;;5076317;22;20393;-70
2020/12/21 10:58:56;;;;;;;;;;;;;;;;;;5047407;28;20386;-70
2020/12/21 11:01:22;;;;;;;;;;;;;;;;;;5047199;28;20340;-69
2020/12/21 11:03:49;;;;;;;;;;;;;;;;;;5048325;28;19932;-70
2020/12/21 11:06:15;;;;;;;;;;;;;;;;;;5050220;28;19925;-70
2020/12/21 11:08:42;;;;;;;;;;;;;;;;;;5049724;28;20020;-71
2020/12/21 11:11:08;;;;;;;;;;;;;;;;;;5057301;28;20428;-72
2020/12/21 11:13:35;;;;;;;;;;;;;;;;;;5051024;28;19925;-69
2020/12/21 11:16:02;;;;;;;;;;;;;;;;;;5048135;28;20450;-70
2020/12/21 11:18:28;;;;;;;;;;;;;;;;;;5047345;28;19972;-70
2020/12/21 11:20:55;;;;;;;;;;;;;;;;;;5047125;28;19928;-72
2020/12/21 11:23:21;;;;;;;;;;;;;;;;;;5044400;28;19981;-71
2020/12/21 11:25:48;;;;;;;;;;;;;;;;;;5034582;28;19925;-70
2020/12/21 11:28:14;;;;;;;;;;;;;;;;;;5046951;28;19970;-69
2020/12/21 11:30:41;;;;;;;;;;;;;;;;;;5046844;28;19932;-70
2020/12/21 11:33:07;;;;;;;;;;;;;;;;;;5039440;28;20442;-68
2020/12/21 11:35:34;;;;;;;;;;;;;;;;;;5042685;28;19932;-71
2020/12/21 11:38:00;;;;;;;;;;;;;;;;;;5052663;28;19925;-70
2020/12/21 11:40:26;;;;;;;;;;;;;;;;;;5051302;28;19926;-70
2020/12/21 11:42:53;;;;;;;;;;;;;;;;;;5053315;28;19925;-68
2020/12/21 11:45:19;;;;;;;;;;;;;;;;;;5054361;28;20408;-70
2020/12/21 11:47:46;;;;;;;;;;;;;;;;;;5058033;28;19925;-72
2020/12/21 11:50:13;;;;;;;;;;;;;;;;;;5055526;28;20329;-73
2020/12/21 11:52:41;;;;;;;;;;;;;;;;;;5054933;28;19974;-71
2020/12/21 11:55:07;;;;;;;;;;;;;;;;;;5054301;28;20386;-70
2020/12/21 11:57:34;;;;;;;;;;;;;;;;;;5051797;28;19968;-71
2020/12/21 12:00:00;;;;;;;;;;;;;;;;;;5048080;28;20042;-71
2020/12/21 12:02:27;;;;;;;;;;;;;;;;;;5045671;28;20425;-70
2020/12/21 12:04:53;;;;;;;;;;;;;;;;;;5051932;28;19967;-70
2020/12/21 12:07:20;;;;;;;;;;;;;;;;;;5052928;28;20063;-70
2020/12/21 12:09:46;;;;;;;;;;;;;;;;;;5054941;28;20386;-71
2020/12/21 12:12:13;;;;;;;;;;;;;;;;;;5044025;28;19960;-70
2020/12/21 12:14:39;;;;;;;;;;;;;;;;;;5054247;28;19940;-69
2020/12/21 12:17:06;;;;;;;;;;;;;;;;;;5047495;28;19925;-71
2020/12/21 12:19:32;;;;;;;;;;;;;;;;;;5046652;28;19959;-72
2020/12/21 12:21:58;;;;;;;;;;;;;;;;;;5048407;28;20452;-71
2020/12/21 12:24:25;;;;;;;;;;;;;;;;;;5054446;28;20075;-71
2020/12/21 12:26:51;;;;;;;;;;;;;;;;;;5054458;28;20024;-69
2020/12/21 12:29:18;;;;;;;;;;;;;;;;;;5042964;28;19925;-71
2020/12/21 12:31:45;;;;;;;;;;;;;;;;;;5053146;28;20036;-69
2020/12/21 12:34:11;;;;;;;;;;;;;;;;;;5054559;28;20278;-69
2020/12/21 12:36:39;;;;;;;;;;;;;;;;;;5054432;28;20209;-70
2020/12/21 12:39:05;;;;;;;;;;;;;;;;;;5060624;28;20362;-71
2020/12/21 12:41:32;;;;;;;;;;;;;;;;;;5057800;28;19925;-71
2020/12/21 12:43:58;;;;;;;;;;;;;;;;;;5054429;28;19984;-68
2020/12/21 12:46:25;;;;;;;;;;;;;;;;;;5052827;28;20027;-71
2020/12/21 12:48:51;;;;;;;;;;;;;;;;;;5056049;28;19976;-70
2020/12/21 12:51:18;;;;;;;;;;;;;;;;;;5049927;28;20394;-70
2020/12/21 12:53:44;;;;;;;;;;;;;;;;;;5058138;28;19947;-68
2020/12/21 12:56:11;;;;;;;;;;;;;;;;;;5067023;28;20039;-71
2020/12/21 12:58:37;;;;;;;;;;;;;;;;;;5044973;28;20027;-72
2020/12/21 13:01:05;;;;;;;;;;;;;;;;;;5044524;28;20415;-71
2020/12/21 13:03:32;;;;;;;;;;;;;;;;;;5051457;28;19980;-68
2020/12/21 13:05:58;;;;;;;;;;;;;;;;;;5047362;28;19925;-71
2020/12/21 13:08:25;;;;;;;;;;;;;;;;;;5057810;28;19924;-70
2020/12/21 13:10:51;;;;;;;;;;;;;;;;;;5057316;28;20015;-69
2020/12/21 13:13:17;;;;;;;;;;;;;;;;;;5051857;28;19970;-72
2020/12/21 13:15:44;;;;;;;;;;;;;;;;;;5049838;28;19933;-70
2020/12/21 13:18:10;;;;;;;;;;;;;;;;;;5052938;28;19933;-68
2020/12/21 13:20:37;;;;;;;;;;;;;;;;;;5053016;28;19932;-69
2020/12/21 13:23:03;;;;;;;;;;;;;;;;;;5045980;28;19967;-70
2020/12/21 13:25:30;;;;;;;;;;;;;;;;;;5046714;28;19970;-70
2020/12/21 13:27:56;;;;;;;;;;;;;;;;;;5050009;28;20020;-72
2020/12/21 13:30:23;;;;;;;;;;;;;;;;;;5046624;28;20278;-69
2020/12/21 13:32:49;;;;;;;;;;;;;;;;;;5054539;28;19929;-68
2020/12/21 13:35:17;;;;;;;;;;;;;;;;;;5045902;28;19925;-69
2020/12/21 13:37:43;;;;;;;;;;;;;;;;;;5035386;28;19925;-69
2020/12/21 13:40:10;;;;;;;;;;;;;;;;;;5038703;28;20042;-69
2020/12/21 13:42:36;;;;;;;;;;;;;;;;;;5073115;28;20505;-71
2020/12/21 13:45:03;;;;;;;;;;;;;;;;;;5048852;28;19932;-68
2020/12/21 13:47:29;;;;;;;;;;;;;;;;;;5047994;28;19959;-68
2020/12/21 13:49:56;;;;;;;;;;;;;;;;;;5047290;28;19924;-69
2020/12/21 13:52:22;;;;;;;;;;;;;;;;;;5042676;28;20067;-68
2020/12/21 13:54:49;;;;;;;;;;;;;;;;;;5047625;28;19925;-73
2020/12/21 13:57:15;;;;;;;;;;;;;;;;;;5046393;28;20366;-68
2020/12/21 13:59:42;;;;;;;;;;;;;;;;;;5061174;28;19925;-68
2020/12/21 14:02:08;;;;;;;;;;;;;;;;;;5054425;28;19933;-71
2020/12/21 14:04:35;;;;;;;;;;;;;;;;;;5052746;28;19924;-71
2020/12/21 14:07:02;;;;;;;;;;;;;;;;;;5052325;28;19960;-69
2020/12/21 14:09:28;;;;;;;;;;;;;;;;;;5054828;28;19986;-68
2020/12/21 14:11:55;;;;;;;;;;;;;;;;;;5062090;28;19925;-69
2020/12/21 14:14:21;;;;;;;;;;;;;;;;;;5050644;28;19925;-70
2020/12/21 14:16:48;;;;;;;;;;;;;;;;;;5057248;28;19925;-68
2020/12/21 14:19:14;;;;;;;;;;;;;;;;;;5054305;28;20007;-70
2020/12/21 14:21:40;;;;;;;;;;;;;;;;;;5069041;28;19931;-69
2020/12/21 14:24:07;;;;;;;;;;;;;;;;;;5051911;28;19929;-70
2020/12/21 14:26:34;;;;;;;;;;;;;;;;;;5070804;28;19925;-68
2020/12/21 14:29:00;;;;;;;;;;;;;;;;;;5064012;28;20314;-69
2020/12/21 14:31:26;;;;;;;;;;;;;;;;;;5052764;28;19940;-69
2020/12/21 14:33:53;;;;;;;;;;;;;;;;;;5050149;28;19971;-72
2020/12/21 14:36:19;;;;;;;;;;;;;;;;;;5045998;28;20031;-70
2020/12/21 14:38:46;;;;;;;;;;;;;;;;;;5050495;28;20004;-70
2020/12/21 14:41:12;;;;;;;;;;;;;;;;;;5047104;28;19933;-71
2020/12/21 14:43:39;;;;;;;;;;;;;;;;;;5053097;28;20379;-69
2020/12/21 14:46:05;;;;;;;;;;;;;;;;;;5049599;28;19947;-69
2020/12/21 14:48:32;;;;;;;;;;;;;;;;;;5043151;28;19953;-69
2020/12/21 14:50:58;;;;;;;;;;;;;;;;;;5045709;28;19984;-70
2020/12/21 14:53:24;;;;;;;;;;;;;;;;;;5045170;28;19988;-69
2020/12/21 14:55:51;;;;;;;;;;;;;;;;;;5039006;28;21141;-70
2020/12/21 14:58:17;;;;;;;;;;;;;;;;;;5034985;28;19932;-69
2020/12/21 15:00:44;;;;;;;;;;;;;;;;;;5037200;28;20009;-69
2020/12/21 15:03:10;;;;;;;;;;;;;;;;;;5044885;28;19981;-71
2020/12/21 15:05:37;;;;;;;;;;;;;;;;;;5039114;28;19929;-71
2020/12/21 15:08:03;;;;;;;;;;;;;;;;;;5039780;28;19932;-70
2020/12/21 15:10:30;;;;;;;;;;;;;;;;;;5047146;28;19946;-70
2020/12/21 15:12:57;;;;;;;;;;;;;;;;;;5052178;28;19936;-70
2020/12/21 15:15:23;;;;;;;;;;;;;;;;;;5060217;28;20023;-70
2020/12/21 15:17:50;;;;;;;;;;;;;;;;;;5041645;28;20394;-70
2020/12/21 15:20:16;;;;;;;;;;;;;;;;;;5059220;28;19947;-71
2020/12/21 15:22:44;;;;;;;;;;;;;;;;;;5042192;28;20021;-69
2020/12/21 15:25:11;;;;;;;;;;;;;;;;;;5043610;28;20012;-72
2020/12/21 15:27:37;;;;;;;;;;;;;;;;;;5045660;28;19931;-69
2020/12/21 15:30:04;;;;;;;;;;;;;;;;;;5052282;28;20391;-68
2020/12/21 15:32:30;;;;;;;;;;;;;;;;;;5053350;28;20438;-69
2020/12/21 15:34:57;;;;;;;;;;;;;;;;;;5040993;28;19928;-70
2020/12/21 15:37:23;;;;;;;;;;;;;;;;;;5042855;28;20071;-69
2020/12/21 15:39:49;;;;;;;;;;;;;;;;;;5044097;28;19963;-69
2020/12/21 15:42:16;;;;;;;;;;;;;;;;;;5053093;28;19925;-69
2020/12/21 15:44:42;;;;;;;;;;;;;;;;;;5046427;28;20036;-70
2020/12/21 15:47:09;;;;;;;;;;;;;;;;;;5051991;28;19963;-67
2020/12/21 15:49:35;;;;;;;;;;;;;;;;;;5047708;28;20031;-70
2020/12/21 15:52:02;;;;;;;;;;;;;;;;;;5054825;28;20350;-69
2020/12/21 15:54:28;;;;;;;;;;;;;;;;;;5053195;28;19929;-70
2020/12/21 15:56:55;;;;;;;;;;;;;;;;;;5043557;28;19928;-70
2020/12/21 15:59:21;;;;;;;;;;;;;;;;;;5053386;28;19931;-70
2020/12/21 16:01:48;;;;;;;;;;;;;;;;;;5045828;28;20022;-69
2020/12/21 16:04:15;;;;;;;;;;;;;;;;;;5040835;28;19925;-69
2020/12/21 16:06:42;;;;;;;;;;;;;;;;;;5044252;28;19978;-72
2020/12/21 16:09:08;;;;;;;;;;;;;;;;;;5054579;28;20041;-70
2020/12/21 16:11:35;;;;;;;;;;;;;;;;;;5051421;28;19928;-69
2020/12/21 16:14:01;;;;;;;;;;;;;;;;;;5042048;28;20332;-71
2020/12/21 16:16:28;;;;;;;;;;;;;;;;;;5043608;28;20039;-71
2020/12/21 16:18:54;;;;;;;;;;;;;;;;;;5037255;28;19960;-69
2020/12/21 16:21:21;;;;;;;;;;;;;;;;;;5045085;28;19925;-69
2020/12/21 16:23:47;;;;;;;;;;;;;;;;;;5050016;28;19975;-69
2020/12/21 16:26:14;;;;;;;;;;;;;;;;;;5052419;28;19929;-70
2020/12/21 16:28:40;;;;;;;;;;;;;;;;;;5048278;28;20022;-70
2020/12/21 16:31:06;;;;;;;;;;;;;;;;;;5043814;28;20306;-72
2020/12/21 16:33:33;;;;;;;;;;;;;;;;;;5042358;28;20003;-71
2020/12/21 16:35:59;;;;;;;;;;;;;;;;;;5036432;28;19971;-73
2020/12/21 16:38:26;;;;;;;;;;;;;;;;;;5043610;28;19931;-71
2020/12/21 16:40:52;;;;;;;;;;;;;;;;;;5042811;28;20028;-71
2020/12/21 16:43:19;;;;;;;;;;;;;;;;;;5043065;28;19925;-70